Bleecker, New York
Current Conditions -  °F | °C
As of 2:55 AM on Tuesday 21 Oct 2014 (Local Time) from KNY0 Reporting Station
Overcast Overcast  
Wind Chill: 40°   Ceiling: 10000
Heat Index: 43°   Visibility: 10mi
Dew Point: 37°   Wind: 5mph
Humidity: 78%   Direction: 50°NE
Pressure: 29.9"   Gusts: NA
Location:  43.1204°N, 74.3629°W
Report Text: KNY0 210655Z AUTO 05004KT 10SM SCT055 BKN100 OVC120 06/03 A2990 RMK AO2 T00620026
Loading
Personal Weather Stations






























Interactive Weather Map
Tropical Storm Tracking
New forecast layout! Learn more

10-Day Weather Forecast

Advertisements
Track Severe Weather on mobile